createdAt,value
2022-11-21T10:51:53.502Z,53.64
2022-11-21T10:54:20.852Z,54.61
2022-11-21T10:56:47.901Z,53.97
2022-11-21T10:59:28.672Z,52.92
2022-11-21T11:02:14.395Z,53.30
2022-11-21T11:04:49.072Z,52.70
2022-11-21T11:07:24.640Z,52.64
2022-11-21T11:09:51.644Z,53.45
2022-11-21T11:12:30.694Z,51.71
2022-11-21T11:14:57.604Z,52.32
2022-11-21T11:17:34.539Z,52.33
2022-11-21T11:20:32.489Z,53.51
2022-11-21T11:22:59.527Z,52.09
2022-11-21T11:25:26.350Z,51.97
2022-11-21T11:27:53.353Z,52.90
2022-11-21T11:30:20.439Z,50.65
2022-11-21T11:32:48.065Z,51.34
2022-11-21T11:35:22.036Z,51.00
2022-11-21T11:38:15.441Z,51.38
2022-11-21T11:40:43.767Z,52.10
2022-11-21T11:43:20.012Z,50.68
2022-11-21T11:46:11.532Z,51.33
2022-11-21T11:48:56.652Z,51.56
2022-11-21T11:51:28.329Z,52.13
2022-11-21T11:54:01.092Z,50.72
2022-11-21T11:56:30.096Z,50.28
2022-11-21T11:59:21.419Z,50.82
2022-11-21T12:01:59.633Z,50.29
2022-11-21T12:04:29.070Z,51.60
2022-11-21T12:10:22.266Z,51.16
2022-11-21T12:13:05.053Z,50.15
2022-11-21T12:15:35.537Z,51.08
2022-11-21T12:18:20.627Z,51.72
2022-11-21T12:21:15.684Z,51.98
2022-11-21T12:23:55.609Z,51.14
2022-11-21T12:26:37.676Z,49.78
2022-11-21T12:29:42.101Z,49.99
2022-11-21T12:32:15.060Z,50.97
2022-11-21T12:35:02.657Z,50.73
2022-11-21T12:37:54.183Z,51.27
2022-11-21T12:40:42.820Z,52.07
2022-11-21T12:43:34.660Z,52.31
2022-11-21T12:46:16.510Z,53.27
2022-11-21T12:48:47.116Z,53.48
2022-11-21T12:51:29.337Z,53.93
2022-11-21T12:54:24.539Z,55.13
2022-11-21T12:57:12.914Z,55.55
2022-11-21T12:59:51.264Z,55.59
2022-11-21T13:02:33.186Z,55.63
2022-11-21T13:05:00.123Z,54.74
2022-11-21T13:07:28.188Z,55.77
2022-11-21T13:09:55.270Z,55.08
2022-11-21T13:12:42.947Z,55.11
2022-11-21T13:15:28.503Z,55.05
2022-11-21T13:18:02.396Z,53.98
2022-11-21T13:20:34.890Z,54.24
2022-11-21T13:23:02.169Z,55.01
2022-11-21T13:25:32.102Z,54.52
2022-11-21T13:28:14.196Z,54.15
2022-11-21T13:30:47.926Z,53.85
2022-11-21T13:33:36.596Z,53.46
2022-11-21T13:36:13.446Z,53.01
2022-11-21T13:38:52.518Z,52.82
2022-11-21T13:41:34.808Z,52.41
2022-11-21T13:44:32.505Z,53.28
2022-11-21T13:47:09.744Z,54.10
2022-11-21T13:50:00.669Z,52.70
2022-11-21T13:52:45.463Z,52.84
2022-11-21T13:55:47.180Z,52.19
2022-11-21T13:58:44.513Z,53.74
2022-11-21T14:01:30.088Z,51.53
2022-11-21T14:04:08.825Z,49.82
2022-11-21T14:06:37.348Z,51.99
2022-11-21T14:09:13.851Z,52.90
2022-11-21T14:11:48.080Z,52.94
2022-11-21T14:14:54.021Z,53.41
2022-11-21T14:17:48.173Z,53.44
2022-11-21T14:20:26.097Z,54.05
2022-11-21T14:23:02.098Z,52.86
2022-11-21T14:25:37.368Z,54.83
2022-11-21T14:28:05.688Z,55.24
2022-11-21T14:30:39.758Z,56.73
2022-11-21T14:33:22.885Z,57.80
2022-11-21T14:36:02.987Z,55.98
2022-11-21T14:38:31.304Z,56.46
2022-11-21T14:41:29.294Z,56.49
2022-11-21T14:43:58.809Z,56.89
2022-11-21T14:46:26.957Z,57.68
2022-11-21T14:48:53.957Z,57.76
2022-11-21T14:51:22.184Z,58.34
2022-11-21T14:53:49.770Z,58.17
2022-11-21T14:56:33.428Z,57.75
2022-11-21T14:59:02.142Z,57.40
2022-11-21T15:01:30.822Z,57.70
2022-11-21T15:03:59.460Z,57.63
2022-11-21T15:06:26.467Z,58.05
2022-11-21T15:10:11.575Z,59.45
2022-11-21T15:11:49.699Z,58.59
2022-11-21T15:14:39.138Z,58.72
2022-11-21T15:17:09.128Z,59.20
2022-11-21T15:19:36.083Z,59.59
2022-11-21T15:22:03.566Z,59.03
2022-11-21T15:24:38.768Z,59.88
2022-11-21T15:27:24.093Z,62.05
2022-11-21T15:30:02.441Z,59.86
2022-11-21T15:32:29.617Z,57.95
2022-11-21T16:26:09.544Z,61.73
2022-11-21T16:28:36.709Z,62.82
2022-11-21T16:31:04.263Z,64.03
2022-11-21T16:33:33.476Z,64.87
2022-11-21T16:36:00.848Z,65.84
2022-11-21T16:42:12.241Z,66.53
2022-11-21T16:49:57.109Z,68.35
2022-11-21T16:52:23.962Z,69.59
2022-11-21T16:54:54.142Z,69.70
2022-11-21T16:57:21.400Z,69.33
2022-11-21T16:59:48.290Z,70.20
2022-11-21T17:02:15.954Z,70.65
2022-11-21T17:04:43.002Z,70.03
2022-11-21T17:07:10.401Z,69.81
2022-11-21T17:37:32.285Z,70.30
2022-11-21T17:57:36.686Z,72.95
2022-11-21T18:00:06.834Z,72.97
2022-11-21T18:02:43.909Z,73.64
2022-11-21T18:05:51.621Z,73.40
2022-11-21T18:08:29.506Z,74.20
2022-11-21T18:11:08.502Z,73.57
2022-11-21T18:13:59.592Z,74.24
2022-11-21T18:25:02.696Z,73.55
2022-11-21T18:27:30.530Z,72.60
2022-11-21T18:30:00.048Z,72.49
2022-11-21T18:34:09.729Z,72.79
2022-11-21T18:35:57.921Z,71.64
2022-11-21T18:39:13.651Z,71.64
2022-11-21T18:41:47.394Z,71.62
2022-11-21T18:47:19.252Z,71.47
2022-11-21T18:49:48.008Z,71.14
2022-11-21T18:52:15.539Z,70.89
2022-11-21T18:54:42.546Z,71.07
2022-11-21T18:57:09.631Z,71.52
2022-11-21T18:59:36.726Z,71.12
2022-11-21T19:02:03.851Z,72.84
2022-11-21T19:04:34.039Z,72.19
2022-11-21T19:07:01.235Z,72.11
2022-11-21T19:09:32.433Z,72.56
2022-11-21T19:20:58.639Z,72.82
2022-11-21T19:23:25.808Z,71.92
2022-11-21T19:25:53.036Z,72.03
2022-11-21T19:28:19.994Z,73.21
2022-11-21T19:30:46.760Z,73.72
2022-11-21T19:36:13.271Z,73.81
2022-11-21T19:38:40.111Z,73.53
2022-11-21T19:41:08.476Z,73.53
2022-11-21T19:43:35.287Z,73.62
2022-11-21T19:46:02.861Z,73.44
2022-11-21T19:48:30.641Z,73.86
2022-11-21T19:51:01.639Z,73.69
2022-11-21T19:53:29.048Z,74.06
2022-11-21T19:55:55.896Z,74.40
2022-11-21T19:58:22.630Z,74.10
2022-11-21T20:00:49.695Z,74.46
2022-11-21T20:03:16.809Z,74.19
2022-11-21T20:05:59.656Z,74.77
2022-11-21T20:08:27.152Z,75.10
2022-11-21T20:11:04.941Z,75.36
2022-11-21T20:13:32.659Z,75.04
2022-11-21T20:15:59.625Z,75.08
2022-11-21T20:18:26.697Z,76.08
2022-11-21T20:20:53.763Z,75.36
2022-11-21T20:23:20.970Z,75.72
2022-11-21T20:25:53.305Z,76.00
2022-11-21T20:28:20.535Z,76.05
2022-11-21T20:30:47.528Z,76.18
2022-11-21T20:33:14.568Z,75.37
2022-11-21T20:35:41.759Z,75.03
2022-11-21T20:38:08.658Z,75.42
2022-11-21T20:40:35.941Z,75.19
2022-11-21T20:43:03.208Z,75.29
2022-11-21T20:48:20.382Z,74.62
2022-11-21T20:54:01.588Z,75.17
2022-11-21T20:56:27.578Z,75.17
2022-11-21T20:58:55.101Z,75.46
2022-11-21T21:01:33.361Z,76.39
2022-11-21T21:04:03.453Z,76.35
2022-11-21T21:06:30.442Z,76.33
2022-11-21T21:08:57.482Z,75.56
2022-11-21T21:11:50.224Z,76.60
2022-11-21T21:14:11.940Z,75.71
2022-11-21T21:16:39.058Z,76.99
2022-11-21T21:19:05.824Z,76.69
2022-11-21T21:21:32.806Z,76.89
2022-11-21T21:24:05.999Z,76.63
2022-11-21T21:26:42.254Z,77.06
2022-11-21T21:29:15.179Z,76.23
2022-11-21T21:31:48.627Z,76.13
2022-11-21T21:34:17.977Z,76.39
2022-11-21T21:36:45.436Z,76.41
2022-11-21T21:39:12.495Z,76.51
2022-11-21T21:41:39.452Z,76.30
2022-11-21T21:44:06.484Z,76.54
2022-11-21T21:46:33.538Z,76.36
2022-11-21T21:49:00.573Z,76.23
2022-11-21T21:51:31.322Z,76.45
2022-11-21T21:53:59.153Z,76.31
2022-11-21T21:56:26.995Z,75.74
2022-11-21T21:58:54.054Z,76.48
2022-11-21T22:01:31.275Z,76.89
2022-11-21T22:03:59.624Z,76.18
2022-11-21T22:06:26.875Z,75.76
2022-11-21T22:08:54.300Z,76.41
2022-11-21T22:11:22.903Z,75.68
2022-11-21T22:13:56.785Z,75.68
2022-11-21T22:16:23.591Z,76.38
2022-11-21T22:18:50.748Z,76.59
2022-11-21T22:21:22.043Z,77.31
2022-11-21T22:26:35.697Z,76.90
2022-11-21T22:29:02.702Z,77.88
2022-11-21T22:31:30.220Z,77.31
2022-11-21T22:33:57.374Z,77.36
2022-11-21T22:36:24.448Z,76.61
2022-11-21T22:38:54.631Z,76.29
2022-11-21T22:41:26.240Z,75.90
2022-11-21T22:43:54.728Z,75.00
2022-11-21T22:46:21.988Z,75.60
2022-11-21T22:48:49.210Z,75.73
2022-11-21T22:51:18.839Z,76.01
2022-11-21T22:53:47.280Z,75.87
2022-11-21T22:56:16.065Z,75.94
2022-11-21T22:58:43.344Z,75.38
2022-11-21T23:01:11.912Z,76.03
2022-11-21T23:03:39.278Z,76.04
2022-11-21T23:06:14.018Z,75.92
2022-11-21T23:08:41.269Z,75.48
2022-11-21T23:11:09.627Z,76.15
2022-11-21T23:13:37.507Z,75.42
2022-11-21T23:16:05.218Z,75.42
2022-11-21T23:18:32.618Z,75.93
2022-11-21T23:21:00.004Z,76.58
2022-11-21T23:23:26.920Z,75.96
2022-11-21T23:25:54.135Z,76.03
2022-11-21T23:28:21.200Z,75.98
2022-11-21T23:30:49.063Z,74.82
2022-11-21T23:33:16.527Z,75.81
2022-11-21T23:35:43.416Z,77.17
2022-11-21T23:38:11.090Z,76.79
2022-11-21T23:40:38.086Z,76.69
2022-11-21T23:43:04.935Z,76.75
2022-11-21T23:45:32.164Z,77.70
2022-11-21T23:47:59.221Z,76.75
2022-11-21T23:50:26.265Z,76.34
2022-11-21T23:52:53.234Z,76.09
2022-11-21T23:55:20.409Z,76.24
2022-11-21T23:57:48.723Z,75.51
